sensor_id;sensor_type;location;lat;lon;timestamp;P1;durP1;ratioP1;P2;durP2;ratioP2
16870;SDS011;8552;48.120;-1.456;2023-04-28T00:02:16;10.27;;;7.47;;
16870;SDS011;8552;48.120;-1.456;2023-04-28T00:04:42;11.38;;;7.93;;
16870;SDS011;8552;48.120;-1.456;2023-04-28T00:07:08;12.40;;;7.72;;
16870;SDS011;8552;48.120;-1.456;2023-04-28T00:09:33;13.25;;;8.18;;
16870;SDS011;8552;48.120;-1.456;2023-04-28T00:11:59;11.45;;;8.00;;
16870;SDS011;8552;48.120;-1.456;2023-04-28T00:14:25;11.88;;;7.85;;
16870;SDS011;8552;48.120;-1.456;2023-04-28T00:16:51;11.43;;;7.68;;
16870;SDS011;8552;48.120;-1.456;2023-04-28T00:19:17;13.48;;;7.72;;
16870;SDS011;8552;48.120;-1.456;2023-04-28T00:21:42;12.95;;;8.10;;
16870;SDS011;8552;48.120;-1.456;2023-04-28T00:24:08;12.55;;;8.52;;
16870;SDS011;8552;48.120;-1.456;2023-04-28T00:26:33;12.35;;;8.73;;
16870;SDS011;8552;48.120;-1.456;2023-04-28T00:28:59;11.68;;;8.23;;
16870;SDS011;8552;48.120;-1.456;2023-04-28T00:31:25;9.23;;;7.32;;
16870;SDS011;8552;48.120;-1.456;2023-04-28T00:33:50;12.05;;;8.27;;
16870;SDS011;8552;48.120;-1.456;2023-04-28T00:36:16;10.95;;;8.05;;
16870;SDS011;8552;48.120;-1.456;2023-04-28T00:38:41;13.23;;;8.48;;
16870;SDS011;8552;48.120;-1.456;2023-04-28T00:41:10;12.52;;;8.25;;
16870;SDS011;8552;48.120;-1.456;2023-04-28T00:43:43;12.38;;;8.68;;
16870;SDS011;8552;48.120;-1.456;2023-04-28T00:46:11;11.77;;;9.18;;
16870;SDS011;8552;48.120;-1.456;2023-04-28T00:48:43;11.05;;;8.07;;
16870;SDS011;8552;48.120;-1.456;2023-04-28T00:51:09;13.30;;;9.23;;
16870;SDS011;8552;48.120;-1.456;2023-04-28T00:53:35;16.25;;;9.35;;
16870;SDS011;8552;48.120;-1.456;2023-04-28T00:56:01;11.68;;;8.85;;
16870;SDS011;8552;48.120;-1.456;2023-04-28T00:58:28;11.57;;;8.95;;
16870;SDS011;8552;48.120;-1.456;2023-04-28T01:01:00;15.07;;;9.15;;
16870;SDS011;8552;48.120;-1.456;2023-04-28T01:03:27;12.07;;;8.85;;
16870;SDS011;8552;48.120;-1.456;2023-04-28T01:05:53;14.75;;;9.13;;
16870;SDS011;8552;48.120;-1.456;2023-04-28T01:08:23;12.60;;;8.30;;
16870;SDS011;8552;48.120;-1.456;2023-04-28T01:10:52;12.55;;;8.82;;
16870;SDS011;8552;48.120;-1.456;2023-04-28T01:13:18;11.45;;;9.07;;
16870;SDS011;8552;48.120;-1.456;2023-04-28T01:15:43;13.80;;;8.93;;
16870;SDS011;8552;48.120;-1.456;2023-04-28T01:18:09;14.38;;;9.63;;
16870;SDS011;8552;48.120;-1.456;2023-04-28T01:20:35;16.23;;;9.88;;
16870;SDS011;8552;48.120;-1.456;2023-04-28T01:23:00;16.98;;;9.60;;
16870;SDS011;8552;48.120;-1.456;2023-04-28T01:25:26;19.20;;;10.25;;
16870;SDS011;8552;48.120;-1.456;2023-04-28T01:27:52;12.73;;;9.63;;
16870;SDS011;8552;48.120;-1.456;2023-04-28T01:30:17;14.88;;;9.55;;
16870;SDS011;8552;48.120;-1.456;2023-04-28T01:32:43;11.02;;;9.00;;
16870;SDS011;8552;48.120;-1.456;2023-04-28T01:35:08;13.65;;;9.18;;
16870;SDS011;8552;48.120;-1.456;2023-04-28T01:37:34;13.20;;;9.02;;
16870;SDS011;8552;48.120;-1.456;2023-04-28T01:40:00;15.10;;;10.43;;
16870;SDS011;8552;48.120;-1.456;2023-04-28T01:42:25;16.33;;;9.45;;
16870;SDS011;8552;48.120;-1.456;2023-04-28T01:44:51;15.95;;;9.80;;
16870;SDS011;8552;48.120;-1.456;2023-04-28T01:47:17;14.27;;;9.18;;
16870;SDS011;8552;48.120;-1.456;2023-04-28T01:49:42;15.57;;;9.10;;
16870;SDS011;8552;48.120;-1.456;2023-04-28T01:52:08;11.80;;;9.73;;
16870;SDS011;8552;48.120;-1.456;2023-04-28T01:54:34;15.93;;;9.57;;
16870;SDS011;8552;48.120;-1.456;2023-04-28T01:56:59;15.45;;;9.27;;
16870;SDS011;8552;48.120;-1.456;2023-04-28T01:59:27;12.73;;;8.38;;
16870;SDS011;8552;48.120;-1.456;2023-04-28T02:01:52;13.05;;;8.88;;
16870;SDS011;8552;48.120;-1.456;2023-04-28T02:04:18;15.25;;;9.43;;
16870;SDS011;8552;48.120;-1.456;2023-04-28T02:06:44;12.48;;;8.23;;
16870;SDS011;8552;48.120;-1.456;2023-04-28T02:09:09;13.90;;;9.35;;
16870;SDS011;8552;48.120;-1.456;2023-04-28T02:11:35;22.58;;;9.80;;
16870;SDS011;8552;48.120;-1.456;2023-04-28T02:14:01;12.10;;;9.70;;
16870;SDS011;8552;48.120;-1.456;2023-04-28T02:16:26;13.43;;;9.13;;
16870;SDS011;8552;48.120;-1.456;2023-04-28T02:18:52;15.77;;;9.75;;
16870;SDS011;8552;48.120;-1.456;2023-04-28T02:21:18;11.63;;;8.75;;
16870;SDS011;8552;48.120;-1.456;2023-04-28T02:23:43;14.32;;;10.20;;
16870;SDS011;8552;48.120;-1.456;2023-04-28T02:26:09;15.13;;;9.32;;
16870;SDS011;8552;48.120;-1.456;2023-04-28T02:28:35;12.88;;;8.80;;
16870;SDS011;8552;48.120;-1.456;2023-04-28T02:31:07;14.30;;;9.60;;
16870;SDS011;8552;48.120;-1.456;2023-04-28T02:33:35;13.15;;;8.85;;
16870;SDS011;8552;48.120;-1.456;2023-04-28T02:36:02;15.90;;;10.20;;
16870;SDS011;8552;48.120;-1.456;2023-04-28T02:38:28;16.25;;;9.30;;
16870;SDS011;8552;48.120;-1.456;2023-04-28T02:40:58;15.10;;;9.30;;
16870;SDS011;8552;48.120;-1.456;2023-04-28T02:43:24;14.20;;;9.15;;
16870;SDS011;8552;48.120;-1.456;2023-04-28T02:45:50;14.48;;;9.40;;
16870;SDS011;8552;48.120;-1.456;2023-04-28T02:48:16;14.57;;;10.55;;
16870;SDS011;8552;48.120;-1.456;2023-04-28T02:50:41;17.58;;;10.77;;
16870;SDS011;8552;48.120;-1.456;2023-04-28T02:53:07;16.52;;;9.52;;
16870;SDS011;8552;48.120;-1.456;2023-04-28T02:55:33;16.73;;;9.35;;
16870;SDS011;8552;48.120;-1.456;2023-04-28T02:57:58;12.38;;;9.43;;
16870;SDS011;8552;48.120;-1.456;2023-04-28T03:00:24;12.68;;;9.68;;
16870;SDS011;8552;48.120;-1.456;2023-04-28T03:02:50;17.40;;;9.80;;
16870;SDS011;8552;48.120;-1.456;2023-04-28T03:05:15;17.80;;;9.65;;
16870;SDS011;8552;48.120;-1.456;2023-04-28T03:07:41;15.48;;;9.73;;
16870;SDS011;8552;48.120;-1.456;2023-04-28T03:10:07;15.50;;;10.55;;
16870;SDS011;8552;48.120;-1.456;2023-04-28T03:12:33;11.88;;;9.00;;
16870;SDS011;8552;48.120;-1.456;2023-04-28T03:14:58;17.15;;;9.65;;
16870;SDS011;8552;48.120;-1.456;2023-04-28T03:17:25;13.18;;;8.57;;
16870;SDS011;8552;48.120;-1.456;2023-04-28T03:19:50;15.13;;;9.45;;
16870;SDS011;8552;48.120;-1.456;2023-04-28T03:22:16;14.65;;;9.00;;
16870;SDS011;8552;48.120;-1.456;2023-04-28T03:24:42;16.30;;;9.77;;
16870;SDS011;8552;48.120;-1.456;2023-04-28T03:27:08;16.05;;;9.75;;
16870;SDS011;8552;48.120;-1.456;2023-04-28T03:29:33;17.88;;;9.60;;
16870;SDS011;8552;48.120;-1.456;2023-04-28T03:32:00;14.00;;;9.50;;
16870;SDS011;8552;48.120;-1.456;2023-04-28T03:34:26;15.68;;;9.82;;
16870;SDS011;8552;48.120;-1.456;2023-04-28T03:36:51;15.15;;;9.68;;
16870;SDS011;8552;48.120;-1.456;2023-04-28T03:39:17;14.00;;;9.80;;
16870;SDS011;8552;48.120;-1.456;2023-04-28T03:41:43;16.75;;;10.07;;
16870;SDS011;8552;48.120;-1.456;2023-04-28T03:44:08;15.00;;;10.10;;
16870;SDS011;8552;48.120;-1.456;2023-04-28T03:46:34;14.05;;;9.93;;
16870;SDS011;8552;48.120;-1.456;2023-04-28T03:49:00;12.57;;;8.75;;
16870;SDS011;8552;48.120;-1.456;2023-04-28T03:51:26;13.48;;;8.48;;
16870;SDS011;8552;48.120;-1.456;2023-04-28T03:53:53;10.73;;;8.30;;
16870;SDS011;8552;48.120;-1.456;2023-04-28T03:56:19;12.07;;;8.52;;
16870;SDS011;8552;48.120;-1.456;2023-04-28T03:58:45;13.10;;;7.82;;
16870;SDS011;8552;48.120;-1.456;2023-04-28T04:01:11;10.60;;;7.78;;
16870;SDS011;8552;48.120;-1.456;2023-04-28T04:03:37;12.27;;;8.45;;
16870;SDS011;8552;48.120;-1.456;2023-04-28T04:06:03;9.32;;;7.63;;
16870;SDS011;8552;48.120;-1.456;2023-04-28T04:08:29;11.35;;;7.35;;
16870;SDS011;8552;48.120;-1.456;2023-04-28T04:10:56;10.85;;;8.05;;
16870;SDS011;8552;48.120;-1.456;2023-04-28T04:13:22;12.23;;;7.40;;
16870;SDS011;8552;48.120;-1.456;2023-04-28T04:15:48;10.30;;;7.88;;
16870;SDS011;8552;48.120;-1.456;2023-04-28T04:18:15;10.38;;;8.27;;
16870;SDS011;8552;48.120;-1.456;2023-04-28T04:20:40;10.77;;;7.45;;
16870;SDS011;8552;48.120;-1.456;2023-04-28T04:23:06;11.43;;;7.40;;
16870;SDS011;8552;48.120;-1.456;2023-04-28T04:25:32;12.05;;;8.13;;
16870;SDS011;8552;48.120;-1.456;2023-04-28T04:27:58;9.82;;;7.25;;
16870;SDS011;8552;48.120;-1.456;2023-04-28T04:30:23;9.18;;;7.28;;
16870;SDS011;8552;48.120;-1.456;2023-04-28T04:32:49;9.30;;;6.82;;
16870;SDS011;8552;48.120;-1.456;2023-04-28T04:35:15;7.63;;;6.45;;
16870;SDS011;8552;48.120;-1.456;2023-04-28T04:37:41;10.52;;;6.50;;
16870;SDS011;8552;48.120;-1.456;2023-04-28T04:40:07;7.68;;;5.97;;
16870;SDS011;8552;48.120;-1.456;2023-04-28T04:42:33;6.80;;;5.18;;
16870;SDS011;8552;48.120;-1.456;2023-04-28T04:44:59;10.23;;;6.18;;
16870;SDS011;8552;48.120;-1.456;2023-04-28T04:47:24;6.53;;;5.78;;
16870;SDS011;8552;48.120;-1.456;2023-04-28T04:49:50;6.57;;;5.93;;
16870;SDS011;8552;48.120;-1.456;2023-04-28T04:52:16;6.35;;;5.35;;
16870;SDS011;8552;48.120;-1.456;2023-04-28T04:54:43;6.18;;;4.68;;
16870;SDS011;8552;48.120;-1.456;2023-04-28T04:57:09;6.70;;;5.43;;
16870;SDS011;8552;48.120;-1.456;2023-04-28T04:59:35;5.40;;;4.57;;
16870;SDS011;8552;48.120;-1.456;2023-04-28T05:02:01;6.63;;;5.13;;
16870;SDS011;8552;48.120;-1.456;2023-04-28T05:04:27;4.95;;;4.45;;
16870;SDS011;8552;48.120;-1.456;2023-04-28T05:06:52;6.32;;;5.22;;
16870;SDS011;8552;48.120;-1.456;2023-04-28T05:09:18;6.68;;;5.53;;
16870;SDS011;8552;48.120;-1.456;2023-04-28T05:11:44;8.23;;;6.40;;
16870;SDS011;8552;48.120;-1.456;2023-04-28T05:14:10;7.10;;;6.30;;
16870;SDS011;8552;48.120;-1.456;2023-04-28T05:16:36;10.27;;;6.10;;
16870;SDS011;8552;48.120;-1.456;2023-04-28T05:19:03;7.07;;;5.53;;
16870;SDS011;8552;48.120;-1.456;2023-04-28T05:21:29;8.48;;;5.53;;
16870;SDS011;8552;48.120;-1.456;2023-04-28T05:23:55;5.97;;;4.95;;
16870;SDS011;8552;48.120;-1.456;2023-04-28T05:26:21;5.47;;;4.97;;
16870;SDS011;8552;48.120;-1.456;2023-04-28T05:28:47;5.00;;;4.40;;
16870;SDS011;8552;48.120;-1.456;2023-04-28T05:31:13;6.70;;;4.55;;
16870;SDS011;8552;48.120;-1.456;2023-04-28T05:33:38;6.32;;;4.38;;
16870;SDS011;8552;48.120;-1.456;2023-04-28T05:36:04;4.97;;;4.53;;
16870;SDS011;8552;48.120;-1.456;2023-04-28T05:38:30;5.38;;;4.38;;
16870;SDS011;8552;48.120;-1.456;2023-04-28T05:40:57;5.15;;;4.35;;
16870;SDS011;8552;48.120;-1.456;2023-04-28T05:43:23;4.47;;;4.07;;
16870;SDS011;8552;48.120;-1.456;2023-04-28T05:45:49;4.30;;;3.90;;
16870;SDS011;8552;48.120;-1.456;2023-04-28T05:48:14;4.43;;;4.03;;
16870;SDS011;8552;48.120;-1.456;2023-04-28T05:50:40;4.25;;;3.55;;
16870;SDS011;8552;48.120;-1.456;2023-04-28T05:53:06;5.68;;;4.82;;
16870;SDS011;8552;48.120;-1.456;2023-04-28T05:55:32;9.00;;;5.82;;
16870;SDS011;8552;48.120;-1.456;2023-04-28T05:58:00;3.80;;;3.50;;
16870;SDS011;8552;48.120;-1.456;2023-04-28T06:00:28;4.13;;;3.83;;
16870;SDS011;8552;48.120;-1.456;2023-04-28T06:02:54;4.20;;;3.60;;
16870;SDS011;8552;48.120;-1.456;2023-04-28T06:05:21;4.57;;;4.13;;
16870;SDS011;8552;48.120;-1.456;2023-04-28T06:07:47;4.18;;;3.63;;
16870;SDS011;8552;48.120;-1.456;2023-04-28T06:10:12;4.10;;;3.80;;
16870;SDS011;8552;48.120;-1.456;2023-04-28T06:12:38;5.57;;;3.63;;
16870;SDS011;8552;48.120;-1.456;2023-04-28T06:15:04;4.05;;;3.67;;
16870;SDS011;8552;48.120;-1.456;2023-04-28T06:17:30;4.68;;;3.88;;
16870;SDS011;8552;48.120;-1.456;2023-04-28T06:19:57;3.83;;;3.53;;
16870;SDS011;8552;48.120;-1.456;2023-04-28T06:22:33;4.45;;;3.65;;
16870;SDS011;8552;48.120;-1.456;2023-04-28T06:25:10;4.18;;;3.45;;
16870;SDS011;8552;48.120;-1.456;2023-04-28T06:27:48;3.85;;;3.20;;
16870;SDS011;8552;48.120;-1.456;2023-04-28T06:30:34;4.00;;;3.70;;
16870;SDS011;8552;48.120;-1.456;2023-04-28T06:33:18;6.13;;;4.35;;
16870;SDS011;8552;48.120;-1.456;2023-04-28T06:36:03;5.05;;;4.65;;
16870;SDS011;8552;48.120;-1.456;2023-04-28T06:38:34;5.35;;;4.25;;
16870;SDS011;8552;48.120;-1.456;2023-04-28T06:41:20;4.70;;;4.30;;
16870;SDS011;8552;48.120;-1.456;2023-04-28T06:43:54;4.97;;;4.47;;
16870;SDS011;8552;48.120;-1.456;2023-04-28T06:49:26;9.43;;;6.25;;
16870;SDS011;8552;48.120;-1.456;2023-04-28T06:52:04;4.70;;;3.40;;
16870;SDS011;8552;48.120;-1.456;2023-04-28T06:54:54;3.28;;;3.00;;
16870;SDS011;8552;48.120;-1.456;2023-04-28T06:57:26;2.83;;;2.63;;
16870;SDS011;8552;48.120;-1.456;2023-04-28T06:59:59;2.80;;;2.13;;
16870;SDS011;8552;48.120;-1.456;2023-04-28T07:02:29;2.42;;;2.25;;
16870;SDS011;8552;48.120;-1.456;2023-04-28T07:05:13;3.42;;;2.08;;
16870;SDS011;8552;48.120;-1.456;2023-04-28T07:07:56;2.15;;;1.95;;
16870;SDS011;8552;48.120;-1.456;2023-04-28T07:10:43;2.30;;;1.83;;
16870;SDS011;8552;48.120;-1.456;2023-04-28T07:13:17;2.00;;;1.90;;
16870;SDS011;8552;48.120;-1.456;2023-04-28T07:15:52;1.55;;;1.50;;
16870;SDS011;8552;48.120;-1.456;2023-04-28T07:18:28;1.60;;;1.50;;
16870;SDS011;8552;48.120;-1.456;2023-04-28T07:21:09;1.70;;;1.60;;
16870;SDS011;8552;48.120;-1.456;2023-04-28T07:23:48;2.00;;;1.88;;
16870;SDS011;8552;48.120;-1.456;2023-04-28T07:26:23;2.13;;;2.00;;
16870;SDS011;8552;48.120;-1.456;2023-04-28T07:28:59;2.00;;;1.90;;
16870;SDS011;8552;48.120;-1.456;2023-04-28T07:31:31;3.42;;;2.00;;
16870;SDS011;8552;48.120;-1.456;2023-04-28T07:34:07;2.15;;;2.00;;
16870;SDS011;8552;48.120;-1.456;2023-04-28T07:36:39;2.28;;;2.08;;
16870;SDS011;8552;48.120;-1.456;2023-04-28T07:39:12;2.53;;;2.42;;
16870;SDS011;8552;48.120;-1.456;2023-04-28T07:41:44;1.88;;;1.75;;
16870;SDS011;8552;48.120;-1.456;2023-04-28T07:44:13;1.85;;;1.75;;
16870;SDS011;8552;48.120;-1.456;2023-04-28T07:46:43;3.20;;;2.15;;
16870;SDS011;8552;48.120;-1.456;2023-04-28T07:49:29;4.32;;;1.95;;
16870;SDS011;8552;48.120;-1.456;2023-04-28T07:52:05;2.13;;;1.90;;
16870;SDS011;8552;48.120;-1.456;2023-04-28T07:54:38;2.08;;;1.98;;
16870;SDS011;8552;48.120;-1.456;2023-04-28T07:57:15;1.50;;;1.45;;
16870;SDS011;8552;48.120;-1.456;2023-04-28T07:59:57;1.45;;;1.38;;
16870;SDS011;8552;48.120;-1.456;2023-04-28T08:02:39;1.70;;;1.60;;
16870;SDS011;8552;48.120;-1.456;2023-04-28T08:05:15;2.55;;;1.10;;
16870;SDS011;8552;48.120;-1.456;2023-04-28T08:10:26;1.55;;;1.00;;
16870;SDS011;8552;48.120;-1.456;2023-04-28T08:13:12;1.35;;;1.20;;
16870;SDS011;8552;48.120;-1.456;2023-04-28T08:18:38;1.15;;;1.15;;
16870;SDS011;8552;48.120;-1.456;2023-04-28T08:21:13;2.03;;;1.20;;
16870;SDS011;8552;48.120;-1.456;2023-04-28T08:23:56;1.48;;;1.38;;
16870;SDS011;8552;48.120;-1.456;2023-04-28T08:26:35;2.00;;;1.40;;
16870;SDS011;8552;48.120;-1.456;2023-04-28T08:29:11;1.60;;;1.50;;
16870;SDS011;8552;48.120;-1.456;2023-04-28T08:31:43;1.52;;;1.42;;
16870;SDS011;8552;48.120;-1.456;2023-04-28T08:34:13;1.58;;;1.48;;
16870;SDS011;8552;48.120;-1.456;2023-04-28T08:36:50;2.22;;;1.40;;
16870;SDS011;8552;48.120;-1.456;2023-04-28T08:39:52;1.50;;;1.27;;
16870;SDS011;8552;48.120;-1.456;2023-04-28T08:42:51;1.60;;;1.00;;
16870;SDS011;8552;48.120;-1.456;2023-04-28T08:45:47;3.72;;;1.40;;
16870;SDS011;8552;48.120;-1.456;2023-04-28T08:48:20;2.08;;;1.88;;
16870;SDS011;8552;48.120;-1.456;2023-04-28T08:51:23;1.63;;;1.52;;
16870;SDS011;8552;48.120;-1.456;2023-04-28T08:54:13;2.25;;;1.92;;
16870;SDS011;8552;48.120;-1.456;2023-04-28T08:57:26;2.58;;;2.17;;
16870;SDS011;8552;48.120;-1.456;2023-04-28T09:00:10;2.28;;;1.70;;
16870;SDS011;8552;48.120;-1.456;2023-04-28T09:02:48;3.50;;;1.52;;
16870;SDS011;8552;48.120;-1.456;2023-04-28T09:05:21;1.30;;;1.30;;
16870;SDS011;8552;48.120;-1.456;2023-04-28T09:07:55;1.40;;;1.30;;
16870;SDS011;8552;48.120;-1.456;2023-04-28T09:10:34;1.05;;;1.00;;
16870;SDS011;8552;48.120;-1.456;2023-04-28T09:13:05;1.27;;;0.82;;
16870;SDS011;8552;48.120;-1.456;2023-04-28T09:16:00;1.13;;;0.80;;
16870;SDS011;8552;48.120;-1.456;2023-04-28T09:18:31;1.00;;;0.77;;
16870;SDS011;8552;48.120;-1.456;2023-04-28T09:21:23;2.63;;;1.27;;
16870;SDS011;8552;48.120;-1.456;2023-04-28T09:27:03;3.28;;;2.00;;
16870;SDS011;8552;48.120;-1.456;2023-04-28T09:29:51;3.47;;;2.25;;
16870;SDS011;8552;48.120;-1.456;2023-04-28T09:32:22;1.20;;;1.10;;
16870;SDS011;8552;48.120;-1.456;2023-04-28T09:35:08;1.85;;;1.70;;
16870;SDS011;8552;48.120;-1.456;2023-04-28T09:37:40;1.77;;;1.60;;
16870;SDS011;8552;48.120;-1.456;2023-04-28T09:40:07;1.50;;;1.40;;
16870;SDS011;8552;48.120;-1.456;2023-04-28T09:42:35;1.42;;;1.33;;
16870;SDS011;8552;48.120;-1.456;2023-04-28T09:45:09;1.90;;;1.23;;
16870;SDS011;8552;48.120;-1.456;2023-04-28T09:47:36;1.60;;;1.50;;
16870;SDS011;8552;48.120;-1.456;2023-04-28T09:50:05;2.03;;;1.17;;
16870;SDS011;8552;48.120;-1.456;2023-04-28T09:52:35;2.15;;;1.20;;
16870;SDS011;8552;48.120;-1.456;2023-04-28T09:55:04;1.38;;;1.27;;
16870;SDS011;8552;48.120;-1.456;2023-04-28T09:57:33;2.35;;;1.20;;
16870;SDS011;8552;48.120;-1.456;2023-04-28T10:00:00;1.90;;;0.90;;
16870;SDS011;8552;48.120;-1.456;2023-04-28T10:02:29;2.80;;;1.30;;
16870;SDS011;8552;48.120;-1.456;2023-04-28T10:04:56;3.30;;;1.70;;
16870;SDS011;8552;48.120;-1.456;2023-04-28T10:07:22;3.40;;;1.40;;
16870;SDS011;8552;48.120;-1.456;2023-04-28T10:09:48;1.15;;;1.15;;
16870;SDS011;8552;48.120;-1.456;2023-04-28T10:14:41;2.63;;;1.20;;
16870;SDS011;8552;48.120;-1.456;2023-04-28T10:17:08;1.70;;;1.10;;
16870;SDS011;8552;48.120;-1.456;2023-04-28T10:19:35;0.70;;;0.70;;
16870;SDS011;8552;48.120;-1.456;2023-04-28T10:22:18;3.30;;;0.80;;
16870;SDS011;8552;48.120;-1.456;2023-04-28T10:25:11;1.02;;;1.00;;
16870;SDS011;8552;48.120;-1.456;2023-04-28T10:27:51;1.73;;;1.00;;
16870;SDS011;8552;48.120;-1.456;2023-04-28T10:30:19;0.90;;;0.90;;
16870;SDS011;8552;48.120;-1.456;2023-04-28T10:33:21;1.10;;;1.10;;
16870;SDS011;8552;48.120;-1.456;2023-04-28T10:35:40;1.25;;;1.17;;
16870;SDS011;8552;48.120;-1.456;2023-04-28T10:38:08;2.13;;;1.10;;
16870;SDS011;8552;48.120;-1.456;2023-04-28T10:40:35;1.83;;;1.20;;
16870;SDS011;8552;48.120;-1.456;2023-04-28T10:43:03;1.17;;;1.17;;
16870;SDS011;8552;48.120;-1.456;2023-04-28T10:48:16;3.28;;;1.15;;
16870;SDS011;8552;48.120;-1.456;2023-04-28T10:56:14;0.98;;;0.90;;
16870;SDS011;8552;48.120;-1.456;2023-04-28T10:58:42;1.25;;;1.00;;
16870;SDS011;8552;48.120;-1.456;2023-04-28T11:08:52;2.17;;;1.10;;
16870;SDS011;8552;48.120;-1.456;2023-04-28T11:16:59;1.45;;;0.90;;
16870;SDS011;8552;48.120;-1.456;2023-04-28T11:19:30;1.05;;;0.95;;
16870;SDS011;8552;48.120;-1.456;2023-04-28T11:22:24;1.88;;;1.13;;
16870;SDS011;8552;48.120;-1.456;2023-04-28T11:27:24;1.70;;;1.10;;
16870;SDS011;8552;48.120;-1.456;2023-04-28T11:29:51;1.67;;;1.02;;
16870;SDS011;8552;48.120;-1.456;2023-04-28T11:32:17;1.35;;;1.10;;
16870;SDS011;8552;48.120;-1.456;2023-04-28T11:34:51;1.30;;;1.02;;
16870;SDS011;8552;48.120;-1.456;2023-04-28T11:37:17;2.90;;;0.82;;
16870;SDS011;8552;48.120;-1.456;2023-04-28T11:39:45;1.00;;;1.00;;
16870;SDS011;8552;48.120;-1.456;2023-04-28T11:42:11;2.85;;;1.10;;
16870;SDS011;8552;48.120;-1.456;2023-04-28T11:44:36;1.55;;;1.15;;
16870;SDS011;8552;48.120;-1.456;2023-04-28T11:47:03;2.75;;;1.10;;
16870;SDS011;8552;48.120;-1.456;2023-04-28T11:49:30;2.33;;;1.77;;
16870;SDS011;8552;48.120;-1.456;2023-04-28T11:52:06;2.60;;;1.65;;
16870;SDS011;8552;48.120;-1.456;2023-04-28T11:54:33;3.53;;;2.15;;
16870;SDS011;8552;48.120;-1.456;2023-04-28T11:57:01;1.35;;;1.20;;
16870;SDS011;8552;48.120;-1.456;2023-04-28T11:59:32;1.15;;;0.95;;
16870;SDS011;8552;48.120;-1.456;2023-04-28T12:02:00;1.75;;;1.10;;
16870;SDS011;8552;48.120;-1.456;2023-04-28T12:04:37;1.17;;;1.00;;
16870;SDS011;8552;48.120;-1.456;2023-04-28T12:07:05;1.85;;;1.08;;
16870;SDS011;8552;48.120;-1.456;2023-04-28T12:09:38;1.60;;;1.50;;
16870;SDS011;8552;48.120;-1.456;2023-04-28T12:12:09;1.40;;;1.30;;
16870;SDS011;8552;48.120;-1.456;2023-04-28T12:14:55;1.08;;;1.08;;
16870;SDS011;8552;48.120;-1.456;2023-04-28T12:17:25;1.17;;;1.08;;
16870;SDS011;8552;48.120;-1.456;2023-04-28T12:19:51;1.42;;;1.30;;
16870;SDS011;8552;48.120;-1.456;2023-04-28T12:22:20;3.90;;;1.38;;
16870;SDS011;8552;48.120;-1.456;2023-04-28T12:25:01;3.42;;;1.23;;
16870;SDS011;8552;48.120;-1.456;2023-04-28T12:27:28;1.40;;;1.30;;
16870;SDS011;8552;48.120;-1.456;2023-04-28T12:29:55;1.77;;;1.00;;
16870;SDS011;8552;48.120;-1.456;2023-04-28T12:32:38;2.17;;;1.30;;
16870;SDS011;8552;48.120;-1.456;2023-04-28T12:35:05;1.17;;;1.00;;
16870;SDS011;8552;48.120;-1.456;2023-04-28T12:37:32;2.60;;;1.00;;
16870;SDS011;8552;48.120;-1.456;2023-04-28T12:39:58;0.80;;;0.80;;
16870;SDS011;8552;48.120;-1.456;2023-04-28T12:42:24;1.52;;;1.15;;
16870;SDS011;8552;48.120;-1.456;2023-04-28T12:44:50;1.38;;;1.00;;
16870;SDS011;8552;48.120;-1.456;2023-04-28T12:47:16;2.05;;;1.00;;
16870;SDS011;8552;48.120;-1.456;2023-04-28T12:49:42;1.52;;;1.00;;
16870;SDS011;8552;48.120;-1.456;2023-04-28T12:52:08;1.02;;;0.93;;
16870;SDS011;8552;48.120;-1.456;2023-04-28T12:54:34;3.85;;;1.10;;
16870;SDS011;8552;48.120;-1.456;2023-04-28T12:57:01;2.55;;;1.10;;
16870;SDS011;8552;48.120;-1.456;2023-04-28T12:59:29;1.33;;;0.80;;
16870;SDS011;8552;48.120;-1.456;2023-04-28T13:01:55;1.27;;;0.88;;
16870;SDS011;8552;48.120;-1.456;2023-04-28T13:04:21;1.15;;;0.88;;
16870;SDS011;8552;48.120;-1.456;2023-04-28T13:06:48;1.48;;;0.80;;
16870;SDS011;8552;48.120;-1.456;2023-04-28T13:09:14;1.00;;;1.00;;
16870;SDS011;8552;48.120;-1.456;2023-04-28T13:11:40;1.10;;;1.05;;
16870;SDS011;8552;48.120;-1.456;2023-04-28T13:14:07;3.50;;;1.35;;
16870;SDS011;8552;48.120;-1.456;2023-04-28T13:16:33;1.05;;;0.95;;
16870;SDS011;8552;48.120;-1.456;2023-04-28T13:19:03;3.58;;;1.15;;
16870;SDS011;8552;48.120;-1.456;2023-04-28T13:21:33;2.08;;;1.13;;
16870;SDS011;8552;48.120;-1.456;2023-04-28T13:24:01;1.05;;;0.70;;
16870;SDS011;8552;48.120;-1.456;2023-04-28T13:26:28;1.52;;;0.80;;
16870;SDS011;8552;48.120;-1.456;2023-04-28T13:28:55;1.77;;;1.10;;
16870;SDS011;8552;48.120;-1.456;2023-04-28T13:31:21;1.10;;;1.00;;
16870;SDS011;8552;48.120;-1.456;2023-04-28T13:33:46;1.52;;;0.98;;
16870;SDS011;8552;48.120;-1.456;2023-04-28T13:36:12;1.65;;;0.80;;
16870;SDS011;8552;48.120;-1.456;2023-04-28T13:38:41;0.68;;;0.68;;
16870;SDS011;8552;48.120;-1.456;2023-04-28T13:41:10;1.02;;;0.80;;
16870;SDS011;8552;48.120;-1.456;2023-04-28T13:43:35;1.23;;;0.82;;
16870;SDS011;8552;48.120;-1.456;2023-04-28T13:46:01;0.88;;;0.65;;
16870;SDS011;8552;48.120;-1.456;2023-04-28T13:48:32;0.93;;;0.93;;
16870;SDS011;8552;48.120;-1.456;2023-04-28T13:51:00;2.03;;;0.98;;
16870;SDS011;8552;48.120;-1.456;2023-04-28T13:53:26;1.98;;;0.70;;
16870;SDS011;8552;48.120;-1.456;2023-04-28T13:55:52;1.15;;;0.50;;
16870;SDS011;8552;48.120;-1.456;2023-04-28T13:58:18;1.33;;;0.68;;
16870;SDS011;8552;48.120;-1.456;2023-04-28T14:00:44;0.88;;;0.77;;
16870;SDS011;8552;48.120;-1.456;2023-04-28T14:03:09;0.88;;;0.50;;
16870;SDS011;8552;48.120;-1.456;2023-04-28T14:05:35;1.23;;;0.57;;
16870;SDS011;8552;48.120;-1.456;2023-04-28T14:08:01;3.33;;;0.70;;
16870;SDS011;8552;48.120;-1.456;2023-04-28T14:10:27;2.35;;;0.90;;
16870;SDS011;8552;48.120;-1.456;2023-04-28T14:12:53;0.73;;;0.63;;
16870;SDS011;8552;48.120;-1.456;2023-04-28T14:15:19;2.05;;;0.88;;
16870;SDS011;8552;48.120;-1.456;2023-04-28T14:17:45;1.98;;;0.77;;
16870;SDS011;8552;48.120;-1.456;2023-04-28T14:20:12;0.82;;;0.63;;
16870;SDS011;8552;48.120;-1.456;2023-04-28T14:22:38;1.02;;;0.43;;
16870;SDS011;8552;48.120;-1.456;2023-04-28T14:25:04;0.75;;;0.60;;
16870;SDS011;8552;48.120;-1.456;2023-04-28T14:27:30;1.50;;;0.90;;
16870;SDS011;8552;48.120;-1.456;2023-04-28T14:29:57;2.08;;;0.75;;
16870;SDS011;8552;48.120;-1.456;2023-04-28T14:32:24;1.65;;;1.00;;
16870;SDS011;8552;48.120;-1.456;2023-04-28T14:34:50;0.73;;;0.73;;
16870;SDS011;8552;48.120;-1.456;2023-04-28T14:37:16;1.13;;;0.95;;
16870;SDS011;8552;48.120;-1.456;2023-04-28T14:39:42;1.15;;;0.75;;
16870;SDS011;8552;48.120;-1.456;2023-04-28T14:42:09;0.60;;;0.60;;
16870;SDS011;8552;48.120;-1.456;2023-04-28T14:44:35;1.52;;;0.80;;
16870;SDS011;8552;48.120;-1.456;2023-04-28T14:47:01;1.02;;;0.80;;
16870;SDS011;8552;48.120;-1.456;2023-04-28T14:49:27;5.40;;;1.65;;
16870;SDS011;8552;48.120;-1.456;2023-04-28T14:51:53;2.95;;;0.90;;
16870;SDS011;8552;48.120;-1.456;2023-04-28T14:54:19;0.88;;;0.70;;
16870;SDS011;8552;48.120;-1.456;2023-04-28T14:56:48;1.95;;;0.75;;
16870;SDS011;8552;48.120;-1.456;2023-04-28T14:59:14;2.35;;;0.90;;
16870;SDS011;8552;48.120;-1.456;2023-04-28T15:01:40;0.98;;;0.60;;
16870;SDS011;8552;48.120;-1.456;2023-04-28T15:04:06;2.20;;;0.98;;
16870;SDS011;8552;48.120;-1.456;2023-04-28T15:06:33;1.25;;;1.10;;
16870;SDS011;8552;48.120;-1.456;2023-04-28T15:08:59;1.55;;;1.45;;
16870;SDS011;8552;48.120;-1.456;2023-04-28T15:11:25;3.33;;;1.23;;
16870;SDS011;8552;48.120;-1.456;2023-04-28T15:13:51;1.40;;;1.25;;
16870;SDS011;8552;48.120;-1.456;2023-04-28T15:16:17;1.17;;;1.02;;
16870;SDS011;8552;48.120;-1.456;2023-04-28T15:18:43;1.15;;;1.00;;
16870;SDS011;8552;48.120;-1.456;2023-04-28T15:21:10;2.58;;;1.10;;
16870;SDS011;8552;48.120;-1.456;2023-04-28T15:23:36;2.10;;;1.10;;
16870;SDS011;8552;48.120;-1.456;2023-04-28T15:26:02;3.67;;;1.80;;
16870;SDS011;8552;48.120;-1.456;2023-04-28T15:28:27;2.17;;;1.77;;
16870;SDS011;8552;48.120;-1.456;2023-04-28T15:30:53;2.15;;;1.73;;
16870;SDS011;8552;48.120;-1.456;2023-04-28T15:33:19;2.53;;;2.33;;
16870;SDS011;8552;48.120;-1.456;2023-04-28T15:35:45;2.13;;;1.90;;